sensor_id;sensor_type;location;lat;lon;timestamp;P1;durP1;ratioP1;P2;durP2;ratioP2
80247;SDS011;69560;52.206;21.018;2023-08-31T00:00:55;7.30;;;6.70;;
80247;SDS011;69560;52.206;21.018;2023-08-31T00:03:30;9.00;;;7.20;;
80247;SDS011;69560;52.206;21.018;2023-08-31T00:05:57;8.20;;;7.40;;
80247;SDS011;69560;52.206;21.018;2023-08-31T00:08:27;8.10;;;7.30;;
80247;SDS011;69560;52.206;21.018;2023-08-31T00:10:57;8.30;;;7.30;;
80247;SDS011;69560;52.206;21.018;2023-08-31T00:13:25;7.50;;;6.80;;
80247;SDS011;69560;52.206;21.018;2023-08-31T00:15:56;7.60;;;6.30;;
80247;SDS011;69560;52.206;21.018;2023-08-31T00:18:23;7.60;;;6.80;;
80247;SDS011;69560;52.206;21.018;2023-08-31T00:20:51;7.20;;;6.50;;
80247;SDS011;69560;52.206;21.018;2023-08-31T00:23:18;8.10;;;7.30;;
80247;SDS011;69560;52.206;21.018;2023-08-31T00:25:47;7.50;;;6.70;;
80247;SDS011;69560;52.206;21.018;2023-08-31T00:28:17;7.10;;;6.30;;
80247;SDS011;69560;52.206;21.018;2023-08-31T00:33:12;6.30;;;5.60;;
80247;SDS011;69560;52.206;21.018;2023-08-31T00:35:38;8.60;;;6.10;;
80247;SDS011;69560;52.206;21.018;2023-08-31T00:38:10;9.30;;;6.50;;
80247;SDS011;69560;52.206;21.018;2023-08-31T00:40:40;6.50;;;5.90;;
80247;SDS011;69560;52.206;21.018;2023-08-31T00:43:11;7.10;;;5.70;;
80247;SDS011;69560;52.206;21.018;2023-08-31T00:45:39;7.00;;;6.30;;
80247;SDS011;69560;52.206;21.018;2023-08-31T00:48:06;7.90;;;6.20;;
80247;SDS011;69560;52.206;21.018;2023-08-31T00:50:33;9.00;;;5.80;;
80247;SDS011;69560;52.206;21.018;2023-08-31T00:53:00;6.60;;;5.20;;
80247;SDS011;69560;52.206;21.018;2023-08-31T00:55:26;8.40;;;5.20;;
80247;SDS011;69560;52.206;21.018;2023-08-31T00:57:53;7.10;;;5.20;;
80247;SDS011;69560;52.206;21.018;2023-08-31T01:00:23;6.00;;;5.50;;
80247;SDS011;69560;52.206;21.018;2023-08-31T01:03:01;5.70;;;5.20;;
80247;SDS011;69560;52.206;21.018;2023-08-31T01:06:02;6.50;;;5.20;;
80247;SDS011;69560;52.206;21.018;2023-08-31T01:08:56;5.80;;;5.00;;
80247;SDS011;69560;52.206;21.018;2023-08-31T01:14:07;5.70;;;5.00;;
80247;SDS011;69560;52.206;21.018;2023-08-31T01:16:38;6.50;;;5.10;;
80247;SDS011;69560;52.206;21.018;2023-08-31T01:19:51;6.00;;;5.10;;
80247;SDS011;69560;52.206;21.018;2023-08-31T01:22:25;6.40;;;4.70;;
80247;SDS011;69560;52.206;21.018;2023-08-31T01:24:59;8.10;;;4.60;;
80247;SDS011;69560;52.206;21.018;2023-08-31T01:27:30;4.70;;;4.30;;
80247;SDS011;69560;52.206;21.018;2023-08-31T01:29:58;4.90;;;4.40;;
80247;SDS011;69560;52.206;21.018;2023-08-31T01:32:25;7.20;;;4.50;;
80247;SDS011;69560;52.206;21.018;2023-08-31T01:34:51;5.20;;;4.50;;
80247;SDS011;69560;52.206;21.018;2023-08-31T01:37:22;4.90;;;4.50;;
80247;SDS011;69560;52.206;21.018;2023-08-31T01:42:47;5.40;;;4.50;;
80247;SDS011;69560;52.206;21.018;2023-08-31T01:45:17;4.60;;;4.20;;
80247;SDS011;69560;52.206;21.018;2023-08-31T01:47:46;5.20;;;4.50;;
80247;SDS011;69560;52.206;21.018;2023-08-31T01:50:13;4.80;;;4.30;;
80247;SDS011;69560;52.206;21.018;2023-08-31T01:52:40;5.00;;;4.60;;
80247;SDS011;69560;52.206;21.018;2023-08-31T01:55:07;5.70;;;4.50;;
80247;SDS011;69560;52.206;21.018;2023-08-31T01:57:33;5.60;;;4.60;;
80247;SDS011;69560;52.206;21.018;2023-08-31T02:00:00;5.10;;;4.60;;
80247;SDS011;69560;52.206;21.018;2023-08-31T02:02:27;7.90;;;4.80;;
80247;SDS011;69560;52.206;21.018;2023-08-31T02:04:53;5.90;;;4.60;;
80247;SDS011;69560;52.206;21.018;2023-08-31T02:07:20;5.00;;;4.50;;
80247;SDS011;69560;52.206;21.018;2023-08-31T02:09:46;6.30;;;4.40;;
80247;SDS011;69560;52.206;21.018;2023-08-31T02:12:13;4.50;;;4.10;;
80247;SDS011;69560;52.206;21.018;2023-08-31T02:14:39;5.20;;;4.50;;
80247;SDS011;69560;52.206;21.018;2023-08-31T02:17:06;6.10;;;4.20;;
80247;SDS011;69560;52.206;21.018;2023-08-31T02:19:32;6.50;;;5.20;;
80247;SDS011;69560;52.206;21.018;2023-08-31T02:21:59;5.30;;;4.80;;
80247;SDS011;69560;52.206;21.018;2023-08-31T02:24:25;6.40;;;5.20;;
80247;SDS011;69560;52.206;21.018;2023-08-31T02:26:52;5.50;;;4.50;;
80247;SDS011;69560;52.206;21.018;2023-08-31T02:29:18;5.40;;;4.90;;
80247;SDS011;69560;52.206;21.018;2023-08-31T02:31:45;5.80;;;4.60;;
80247;SDS011;69560;52.206;21.018;2023-08-31T02:34:11;5.90;;;4.90;;
80247;SDS011;69560;52.206;21.018;2023-08-31T02:36:38;7.10;;;4.70;;
80247;SDS011;69560;52.206;21.018;2023-08-31T02:39:05;5.30;;;4.80;;
80247;SDS011;69560;52.206;21.018;2023-08-31T02:41:32;6.60;;;5.20;;
80247;SDS011;69560;52.206;21.018;2023-08-31T02:43:58;5.60;;;4.90;;
80247;SDS011;69560;52.206;21.018;2023-08-31T02:46:25;5.10;;;4.60;;
80247;SDS011;69560;52.206;21.018;2023-08-31T02:48:51;6.10;;;4.20;;
80247;SDS011;69560;52.206;21.018;2023-08-31T02:51:18;7.10;;;5.10;;
80247;SDS011;69560;52.206;21.018;2023-08-31T02:53:44;5.40;;;4.80;;
80247;SDS011;69560;52.206;21.018;2023-08-31T02:56:11;5.90;;;4.40;;
80247;SDS011;69560;52.206;21.018;2023-08-31T02:58:38;5.50;;;5.00;;
80247;SDS011;69560;52.206;21.018;2023-08-31T03:01:11;5.30;;;4.80;;
80247;SDS011;69560;52.206;21.018;2023-08-31T03:03:39;6.60;;;4.80;;
80247;SDS011;69560;52.206;21.018;2023-08-31T03:06:07;5.80;;;5.20;;
80247;SDS011;69560;52.206;21.018;2023-08-31T03:08:37;5.90;;;5.10;;
80247;SDS011;69560;52.206;21.018;2023-08-31T03:11:04;5.90;;;5.40;;
80247;SDS011;69560;52.206;21.018;2023-08-31T03:13:32;6.30;;;4.80;;
80247;SDS011;69560;52.206;21.018;2023-08-31T03:16:00;5.00;;;4.50;;
80247;SDS011;69560;52.206;21.018;2023-08-31T03:18:27;4.80;;;4.30;;
80247;SDS011;69560;52.206;21.018;2023-08-31T03:20:54;5.60;;;5.10;;
80247;SDS011;69560;52.206;21.018;2023-08-31T03:23:22;5.60;;;5.10;;
80247;SDS011;69560;52.206;21.018;2023-08-31T03:25:48;5.40;;;4.90;;
80247;SDS011;69560;52.206;21.018;2023-08-31T03:28:15;6.30;;;4.70;;
80247;SDS011;69560;52.206;21.018;2023-08-31T03:30:41;4.50;;;4.00;;
80247;SDS011;69560;52.206;21.018;2023-08-31T03:33:11;4.90;;;4.20;;
80247;SDS011;69560;52.206;21.018;2023-08-31T03:35:38;4.50;;;4.10;;
80247;SDS011;69560;52.206;21.018;2023-08-31T03:38:05;4.50;;;3.80;;
80247;SDS011;69560;52.206;21.018;2023-08-31T03:40:31;5.60;;;4.80;;
80247;SDS011;69560;52.206;21.018;2023-08-31T03:42:58;6.60;;;4.90;;
80247;SDS011;69560;52.206;21.018;2023-08-31T03:45:25;5.50;;;4.90;;
80247;SDS011;69560;52.206;21.018;2023-08-31T03:47:51;5.00;;;4.40;;
80247;SDS011;69560;52.206;21.018;2023-08-31T03:50:18;5.00;;;4.40;;
80247;SDS011;69560;52.206;21.018;2023-08-31T03:52:45;5.10;;;4.40;;
80247;SDS011;69560;52.206;21.018;2023-08-31T03:55:11;6.30;;;4.00;;
80247;SDS011;69560;52.206;21.018;2023-08-31T03:57:37;4.60;;;4.20;;
80247;SDS011;69560;52.206;21.018;2023-08-31T04:00:04;5.00;;;4.50;;
80247;SDS011;69560;52.206;21.018;2023-08-31T04:02:38;4.10;;;3.70;;
80247;SDS011;69560;52.206;21.018;2023-08-31T04:05:05;5.40;;;4.60;;
80247;SDS011;69560;52.206;21.018;2023-08-31T04:07:34;5.20;;;3.90;;
80247;SDS011;69560;52.206;21.018;2023-08-31T04:10:02;5.20;;;3.90;;
80247;SDS011;69560;52.206;21.018;2023-08-31T04:12:29;4.30;;;3.90;;
80247;SDS011;69560;52.206;21.018;2023-08-31T04:14:56;6.50;;;3.90;;
80247;SDS011;69560;52.206;21.018;2023-08-31T04:17:23;5.40;;;3.90;;
80247;SDS011;69560;52.206;21.018;2023-08-31T04:19:50;5.40;;;4.60;;
80247;SDS011;69560;52.206;21.018;2023-08-31T04:22:17;5.00;;;4.20;;
80247;SDS011;69560;52.206;21.018;2023-08-31T04:24:44;4.70;;;3.90;;
80247;SDS011;69560;52.206;21.018;2023-08-31T04:27:10;4.90;;;4.10;;
80247;SDS011;69560;52.206;21.018;2023-08-31T04:29:37;4.60;;;4.10;;
80247;SDS011;69560;52.206;21.018;2023-08-31T04:32:03;8.30;;;4.80;;
80247;SDS011;69560;52.206;21.018;2023-08-31T04:34:31;5.60;;;4.80;;
80247;SDS011;69560;52.206;21.018;2023-08-31T04:36:58;4.80;;;4.40;;
80247;SDS011;69560;52.206;21.018;2023-08-31T04:39:24;4.90;;;4.20;;
80247;SDS011;69560;52.206;21.018;2023-08-31T04:41:53;5.20;;;4.10;;
80247;SDS011;69560;52.206;21.018;2023-08-31T04:44:20;4.00;;;3.60;;
80247;SDS011;69560;52.206;21.018;2023-08-31T04:46:46;6.50;;;4.10;;
80247;SDS011;69560;52.206;21.018;2023-08-31T04:49:13;5.40;;;3.70;;
80247;SDS011;69560;52.206;21.018;2023-08-31T04:51:40;4.00;;;3.40;;
80247;SDS011;69560;52.206;21.018;2023-08-31T04:54:08;3.70;;;3.40;;
80247;SDS011;69560;52.206;21.018;2023-08-31T04:56:34;4.60;;;3.90;;
80247;SDS011;69560;52.206;21.018;2023-08-31T04:59:01;4.20;;;2.80;;
80247;SDS011;69560;52.206;21.018;2023-08-31T05:01:29;5.40;;;3.50;;
80247;SDS011;69560;52.206;21.018;2023-08-31T05:03:56;3.40;;;3.00;;
80247;SDS011;69560;52.206;21.018;2023-08-31T05:06:22;5.80;;;3.50;;
80247;SDS011;69560;52.206;21.018;2023-08-31T05:08:49;4.60;;;3.40;;
80247;SDS011;69560;52.206;21.018;2023-08-31T05:11:15;4.80;;;3.50;;
80247;SDS011;69560;52.206;21.018;2023-08-31T05:13:42;4.20;;;3.80;;
80247;SDS011;69560;52.206;21.018;2023-08-31T05:16:09;4.10;;;3.70;;
80247;SDS011;69560;52.206;21.018;2023-08-31T05:18:35;4.40;;;3.60;;
80247;SDS011;69560;52.206;21.018;2023-08-31T05:21:03;4.10;;;3.50;;
80247;SDS011;69560;52.206;21.018;2023-08-31T05:23:30;3.40;;;3.10;;
80247;SDS011;69560;52.206;21.018;2023-08-31T05:25:56;3.60;;;3.30;;
80247;SDS011;69560;52.206;21.018;2023-08-31T05:28:23;4.50;;;3.50;;
80247;SDS011;69560;52.206;21.018;2023-08-31T05:30:50;3.40;;;3.10;;
80247;SDS011;69560;52.206;21.018;2023-08-31T05:33:19;3.80;;;3.40;;
80247;SDS011;69560;52.206;21.018;2023-08-31T05:35:45;5.70;;;3.30;;
80247;SDS011;69560;52.206;21.018;2023-08-31T05:38:12;5.80;;;3.10;;
80247;SDS011;69560;52.206;21.018;2023-08-31T05:40:39;3.20;;;3.00;;
80247;SDS011;69560;52.206;21.018;2023-08-31T05:43:05;4.40;;;3.70;;
80247;SDS011;69560;52.206;21.018;2023-08-31T05:45:35;4.90;;;3.50;;
80247;SDS011;69560;52.206;21.018;2023-08-31T05:48:01;3.70;;;3.40;;
80247;SDS011;69560;52.206;21.018;2023-08-31T05:50:29;3.60;;;3.30;;
80247;SDS011;69560;52.206;21.018;2023-08-31T05:52:56;6.00;;;3.00;;
80247;SDS011;69560;52.206;21.018;2023-08-31T05:55:23;4.20;;;2.30;;
80247;SDS011;69560;52.206;21.018;2023-08-31T05:57:50;4.50;;;2.60;;
80247;SDS011;69560;52.206;21.018;2023-08-31T06:00:16;2.90;;;2.30;;
80247;SDS011;69560;52.206;21.018;2023-08-31T06:02:43;2.10;;;1.80;;
80247;SDS011;69560;52.206;21.018;2023-08-31T06:05:13;2.50;;;1.70;;
80247;SDS011;69560;52.206;21.018;2023-08-31T06:07:42;10.10;;;4.90;;
80247;SDS011;69560;52.206;21.018;2023-08-31T06:10:09;26.30;;;19.00;;
80247;SDS011;69560;52.206;21.018;2023-08-31T06:12:36;5.80;;;3.20;;
80247;SDS011;69560;52.206;21.018;2023-08-31T06:15:03;3.90;;;2.10;;
80247;SDS011;69560;52.206;21.018;2023-08-31T06:17:30;3.60;;;2.00;;
80247;SDS011;69560;52.206;21.018;2023-08-31T06:19:57;1.30;;;1.00;;
80247;SDS011;69560;52.206;21.018;2023-08-31T06:22:23;3.20;;;1.70;;
80247;SDS011;69560;52.206;21.018;2023-08-31T06:24:51;5.10;;;1.40;;
80247;SDS011;69560;52.206;21.018;2023-08-31T06:27:18;1.70;;;1.20;;
80247;SDS011;69560;52.206;21.018;2023-08-31T06:29:44;9.20;;;1.40;;
80247;SDS011;69560;52.206;21.018;2023-08-31T06:32:11;2.30;;;1.00;;
80247;SDS011;69560;52.206;21.018;2023-08-31T06:34:37;3.20;;;1.30;;
80247;SDS011;69560;52.206;21.018;2023-08-31T06:37:04;1.40;;;1.30;;
80247;SDS011;69560;52.206;21.018;2023-08-31T06:39:31;4.30;;;1.30;;
80247;SDS011;69560;52.206;21.018;2023-08-31T06:41:59;1.40;;;1.30;;
80247;SDS011;69560;52.206;21.018;2023-08-31T06:44:26;2.60;;;1.30;;
80247;SDS011;69560;52.206;21.018;2023-08-31T06:46:52;4.10;;;1.10;;
80247;SDS011;69560;52.206;21.018;2023-08-31T06:49:19;2.20;;;1.30;;
80247;SDS011;69560;52.206;21.018;2023-08-31T06:51:45;2.00;;;1.30;;
80247;SDS011;69560;52.206;21.018;2023-08-31T06:54:12;3.30;;;1.60;;
80247;SDS011;69560;52.206;21.018;2023-08-31T06:56:38;3.30;;;1.40;;
80247;SDS011;69560;52.206;21.018;2023-08-31T06:59:05;2.70;;;2.00;;
80247;SDS011;69560;52.206;21.018;2023-08-31T07:01:32;5.30;;;1.40;;
80247;SDS011;69560;52.206;21.018;2023-08-31T07:03:59;5.30;;;1.90;;
80247;SDS011;69560;52.206;21.018;2023-08-31T07:06:25;2.90;;;2.00;;
80247;SDS011;69560;52.206;21.018;2023-08-31T07:08:52;2.50;;;2.00;;
80247;SDS011;69560;52.206;21.018;2023-08-31T07:11:19;3.20;;;1.90;;
80247;SDS011;69560;52.206;21.018;2023-08-31T07:13:45;2.60;;;2.10;;
80247;SDS011;69560;52.206;21.018;2023-08-31T07:16:12;4.30;;;2.40;;
80247;SDS011;69560;52.206;21.018;2023-08-31T07:18:38;3.20;;;2.30;;
80247;SDS011;69560;52.206;21.018;2023-08-31T07:21:05;4.10;;;2.10;;
80247;SDS011;69560;52.206;21.018;2023-08-31T07:23:31;3.80;;;2.00;;
80247;SDS011;69560;52.206;21.018;2023-08-31T07:25:58;3.60;;;1.90;;
80247;SDS011;69560;52.206;21.018;2023-08-31T07:28:26;2.40;;;2.20;;
80247;SDS011;69560;52.206;21.018;2023-08-31T07:31:03;3.50;;;3.20;;
80247;SDS011;69560;52.206;21.018;2023-08-31T07:33:33;5.00;;;2.20;;
80247;SDS011;69560;52.206;21.018;2023-08-31T07:36:04;3.30;;;2.20;;
80247;SDS011;69560;52.206;21.018;2023-08-31T07:38:32;6.80;;;2.30;;
80247;SDS011;69560;52.206;21.018;2023-08-31T07:40:59;4.40;;;2.30;;
80247;SDS011;69560;52.206;21.018;2023-08-31T07:43:26;2.70;;;2.30;;
80247;SDS011;69560;52.206;21.018;2023-08-31T07:45:53;3.30;;;2.50;;
80247;SDS011;69560;52.206;21.018;2023-08-31T07:48:20;2.90;;;1.90;;
80247;SDS011;69560;52.206;21.018;2023-08-31T07:50:47;2.20;;;1.90;;
80247;SDS011;69560;52.206;21.018;2023-08-31T07:53:14;3.60;;;2.30;;
80247;SDS011;69560;52.206;21.018;2023-08-31T07:55:50;1.80;;;1.60;;
80247;SDS011;69560;52.206;21.018;2023-08-31T07:58:21;3.10;;;2.30;;
80247;SDS011;69560;52.206;21.018;2023-08-31T08:00:47;4.80;;;2.70;;
80247;SDS011;69560;52.206;21.018;2023-08-31T08:03:14;3.00;;;2.10;;
80247;SDS011;69560;52.206;21.018;2023-08-31T08:05:41;6.10;;;1.90;;
80247;SDS011;69560;52.206;21.018;2023-08-31T08:08:07;1.60;;;1.40;;
80247;SDS011;69560;52.206;21.018;2023-08-31T08:10:34;3.60;;;1.80;;
80247;SDS011;69560;52.206;21.018;2023-08-31T08:13:01;4.60;;;1.60;;
80247;SDS011;69560;52.206;21.018;2023-08-31T08:15:27;2.00;;;1.40;;
80247;SDS011;69560;52.206;21.018;2023-08-31T08:17:54;4.00;;;1.60;;
80247;SDS011;69560;52.206;21.018;2023-08-31T08:20:20;3.50;;;2.00;;
80247;SDS011;69560;52.206;21.018;2023-08-31T08:22:47;1.80;;;1.60;;
80247;SDS011;69560;52.206;21.018;2023-08-31T08:25:15;2.60;;;1.50;;
80247;SDS011;69560;52.206;21.018;2023-08-31T08:27:42;2.70;;;1.40;;
80247;SDS011;69560;52.206;21.018;2023-08-31T08:30:08;3.50;;;1.70;;
80247;SDS011;69560;52.206;21.018;2023-08-31T08:32:36;2.30;;;1.70;;
80247;SDS011;69560;52.206;21.018;2023-08-31T08:35:02;1.90;;;1.50;;
80247;SDS011;69560;52.206;21.018;2023-08-31T08:37:30;2.80;;;1.60;;
80247;SDS011;69560;52.206;21.018;2023-08-31T08:39:59;1.70;;;1.40;;
80247;SDS011;69560;52.206;21.018;2023-08-31T08:42:26;1.90;;;1.50;;
80247;SDS011;69560;52.206;21.018;2023-08-31T08:44:56;1.50;;;1.30;;
80247;SDS011;69560;52.206;21.018;2023-08-31T08:47:25;2.00;;;1.60;;
80247;SDS011;69560;52.206;21.018;2023-08-31T08:49:53;3.30;;;1.50;;
80247;SDS011;69560;52.206;21.018;2023-08-31T08:52:21;2.50;;;2.00;;
80247;SDS011;69560;52.206;21.018;2023-08-31T08:54:48;2.70;;;1.60;;
80247;SDS011;69560;52.206;21.018;2023-08-31T08:57:16;1.60;;;1.40;;
80247;SDS011;69560;52.206;21.018;2023-08-31T08:59:42;4.60;;;1.80;;
80247;SDS011;69560;52.206;21.018;2023-08-31T09:02:10;3.30;;;2.00;;
80247;SDS011;69560;52.206;21.018;2023-08-31T09:04:38;4.70;;;1.80;;
80247;SDS011;69560;52.206;21.018;2023-08-31T09:07:05;4.50;;;2.10;;
80247;SDS011;69560;52.206;21.018;2023-08-31T09:09:31;3.00;;;2.10;;
80247;SDS011;69560;52.206;21.018;2023-08-31T09:12:06;2.40;;;2.00;;
80247;SDS011;69560;52.206;21.018;2023-08-31T09:14:34;1.80;;;1.50;;
80247;SDS011;69560;52.206;21.018;2023-08-31T09:17:00;2.60;;;1.90;;
80247;SDS011;69560;52.206;21.018;2023-08-31T09:19:27;3.20;;;2.40;;
80247;SDS011;69560;52.206;21.018;2023-08-31T09:21:55;3.70;;;2.50;;
80247;SDS011;69560;52.206;21.018;2023-08-31T09:24:23;5.60;;;2.20;;
80247;SDS011;69560;52.206;21.018;2023-08-31T09:26:57;1.90;;;1.70;;
80247;SDS011;69560;52.206;21.018;2023-08-31T09:29:24;2.80;;;2.00;;
80247;SDS011;69560;52.206;21.018;2023-08-31T09:31:51;5.30;;;1.90;;
80247;SDS011;69560;52.206;21.018;2023-08-31T09:34:18;4.90;;;2.00;;
80247;SDS011;69560;52.206;21.018;2023-08-31T09:36:44;4.70;;;2.30;;
80247;SDS011;69560;52.206;21.018;2023-08-31T09:39:13;3.00;;;2.00;;
80247;SDS011;69560;52.206;21.018;2023-08-31T09:41:53;3.10;;;1.80;;
80247;SDS011;69560;52.206;21.018;2023-08-31T09:44:20;1.80;;;1.60;;
80247;SDS011;69560;52.206;21.018;2023-08-31T09:46:47;2.00;;;1.50;;
80247;SDS011;69560;52.206;21.018;2023-08-31T09:49:15;4.00;;;1.60;;
80247;SDS011;69560;52.206;21.018;2023-08-31T09:51:46;3.20;;;1.40;;
80247;SDS011;69560;52.206;21.018;2023-08-31T09:54:15;2.80;;;1.80;;
80247;SDS011;69560;52.206;21.018;2023-08-31T09:56:44;3.30;;;1.80;;
80247;SDS011;69560;52.206;21.018;2023-08-31T09:59:12;5.40;;;2.10;;
80247;SDS011;69560;52.206;21.018;2023-08-31T10:01:40;2.30;;;1.40;;
80247;SDS011;69560;52.206;21.018;2023-08-31T10:04:08;2.10;;;1.40;;
80247;SDS011;69560;52.206;21.018;2023-08-31T10:06:35;1.90;;;1.60;;
80247;SDS011;69560;52.206;21.018;2023-08-31T10:09:04;2.20;;;1.30;;
80247;SDS011;69560;52.206;21.018;2023-08-31T10:11:32;1.60;;;1.50;;
80247;SDS011;69560;52.206;21.018;2023-08-31T10:13:59;2.30;;;1.30;;
80247;SDS011;69560;52.206;21.018;2023-08-31T10:16:27;3.50;;;1.50;;
80247;SDS011;69560;52.206;21.018;2023-08-31T10:18:55;1.30;;;1.20;;
80247;SDS011;69560;52.206;21.018;2023-08-31T10:21:22;2.00;;;1.30;;
80247;SDS011;69560;52.206;21.018;2023-08-31T10:23:49;2.40;;;1.30;;
80247;SDS011;69560;52.206;21.018;2023-08-31T10:26:23;2.00;;;1.80;;
80247;SDS011;69560;52.206;21.018;2023-08-31T10:28:51;2.70;;;1.50;;
80247;SDS011;69560;52.206;21.018;2023-08-31T10:31:18;1.50;;;1.30;;
80247;SDS011;69560;52.206;21.018;2023-08-31T10:33:55;2.40;;;1.40;;
80247;SDS011;69560;52.206;21.018;2023-08-31T10:36:37;2.30;;;1.70;;
80247;SDS011;69560;52.206;21.018;2023-08-31T10:39:11;4.40;;;1.60;;
80247;SDS011;69560;52.206;21.018;2023-08-31T10:41:40;2.70;;;1.50;;
80247;SDS011;69560;52.206;21.018;2023-08-31T10:46:48;2.60;;;1.50;;
80247;SDS011;69560;52.206;21.018;2023-08-31T10:49:17;3.10;;;1.60;;
80247;SDS011;69560;52.206;21.018;2023-08-31T10:51:49;2.00;;;1.80;;
80247;SDS011;69560;52.206;21.018;2023-08-31T10:54:23;2.40;;;1.80;;
80247;SDS011;69560;52.206;21.018;2023-08-31T10:59:24;3.70;;;2.50;;
80247;SDS011;69560;52.206;21.018;2023-08-31T11:01:55;2.90;;;2.20;;
80247;SDS011;69560;52.206;21.018;2023-08-31T11:04:22;3.10;;;2.50;;
80247;SDS011;69560;52.206;21.018;2023-08-31T11:09:46;5.80;;;2.40;;
80247;SDS011;69560;52.206;21.018;2023-08-31T11:12:13;3.10;;;2.20;;
80247;SDS011;69560;52.206;21.018;2023-08-31T11:14:40;3.80;;;2.20;;
80247;SDS011;69560;52.206;21.018;2023-08-31T11:17:07;2.30;;;2.10;;
80247;SDS011;69560;52.206;21.018;2023-08-31T11:19:35;3.60;;;2.20;;
80247;SDS011;69560;52.206;21.018;2023-08-31T11:22:02;4.30;;;2.50;;
80247;SDS011;69560;52.206;21.018;2023-08-31T11:24:33;2.70;;;2.40;;
80247;SDS011;69560;52.206;21.018;2023-08-31T11:27:00;2.60;;;2.40;;
80247;SDS011;69560;52.206;21.018;2023-08-31T11:29:29;3.20;;;2.20;;
80247;SDS011;69560;52.206;21.018;2023-08-31T11:31:56;4.80;;;2.60;;
80247;SDS011;69560;52.206;21.018;2023-08-31T11:34:26;3.10;;;2.70;;
80247;SDS011;69560;52.206;21.018;2023-08-31T11:36:52;3.40;;;2.30;;
80247;SDS011;69560;52.206;21.018;2023-08-31T11:39:19;4.20;;;3.00;;
80247;SDS011;69560;52.206;21.018;2023-08-31T11:41:46;3.20;;;2.60;;
80247;SDS011;69560;52.206;21.018;2023-08-31T11:44:13;5.60;;;2.50;;
80247;SDS011;69560;52.206;21.018;2023-08-31T11:46:45;3.10;;;2.60;;
80247;SDS011;69560;52.206;21.018;2023-08-31T11:49:17;4.40;;;2.30;;
80247;SDS011;69560;52.206;21.018;2023-08-31T11:51:45;2.50;;;2.30;;
80247;SDS011;69560;52.206;21.018;2023-08-31T11:54:13;3.90;;;3.10;;
80247;SDS011;69560;52.206;21.018;2023-08-31T11:56:42;3.30;;;2.50;;
80247;SDS011;69560;52.206;21.018;2023-08-31T11:59:10;2.70;;;2.50;;
80247;SDS011;69560;52.206;21.018;2023-08-31T12:01:38;4.20;;;2.50;;
80247;SDS011;69560;52.206;21.018;2023-08-31T12:04:10;3.70;;;2.70;;
80247;SDS011;69560;52.206;21.018;2023-08-31T12:06:39;2.90;;;2.30;;
80247;SDS011;69560;52.206;21.018;2023-08-31T12:09:07;4.70;;;2.70;;
80247;SDS011;69560;52.206;21.018;2023-08-31T12:11:35;3.50;;;2.90;;
80247;SDS011;69560;52.206;21.018;2023-08-31T12:14:02;2.60;;;2.40;;
80247;SDS011;69560;52.206;21.018;2023-08-31T12:16:36;3.40;;;2.60;;
80247;SDS011;69560;52.206;21.018;2023-08-31T12:19:03;4.20;;;2.70;;
80247;SDS011;69560;52.206;21.018;2023-08-31T12:21:32;3.80;;;2.70;;
80247;SDS011;69560;52.206;21.018;2023-08-31T12:23:59;3.70;;;2.60;;
80247;SDS011;69560;52.206;21.018;2023-08-31T12:26:26;2.80;;;2.60;;
80247;SDS011;69560;52.206;21.018;2023-08-31T12:28:53;2.40;;;2.20;;
80247;SDS011;69560;52.206;21.018;2023-08-31T12:31:20;4.20;;;2.60;;
80247;SDS011;69560;52.206;21.018;2023-08-31T12:33:48;4.10;;;2.70;;
80247;SDS011;69560;52.206;21.018;2023-08-31T12:36:15;3.00;;;2.80;;
80247;SDS011;69560;52.206;21.018;2023-08-31T12:38:41;4.60;;;3.10;;
80247;SDS011;69560;52.206;21.018;2023-08-31T12:41:08;3.00;;;2.70;;
80247;SDS011;69560;52.206;21.018;2023-08-31T12:43:35;3.50;;;2.60;;
80247;SDS011;69560;52.206;21.018;2023-08-31T12:46:01;3.40;;;3.10;;
80247;SDS011;69560;52.206;21.018;2023-08-31T12:48:32;5.80;;;2.90;;
80247;SDS011;69560;52.206;21.018;2023-08-31T12:50:59;4.90;;;3.40;;
80247;SDS011;69560;52.206;21.018;2023-08-31T12:53:25;3.70;;;3.20;;
80247;SDS011;69560;52.206;21.018;2023-08-31T12:55:53;2.80;;;2.60;;
80247;SDS011;69560;52.206;21.018;2023-08-31T12:58:20;5.20;;;2.90;;
80247;SDS011;69560;52.206;21.018;2023-08-31T13:00:48;3.50;;;3.10;;
80247;SDS011;69560;52.206;21.018;2023-08-31T13:03:16;3.30;;;2.90;;
80247;SDS011;69560;52.206;21.018;2023-08-31T13:05:43;5.80;;;2.80;;
80247;SDS011;69560;52.206;21.018;2023-08-31T13:08:09;2.80;;;2.60;;
80247;SDS011;69560;52.206;21.018;2023-08-31T13:10:36;5.70;;;2.60;;
80247;SDS011;69560;52.206;21.018;2023-08-31T13:13:05;5.50;;;2.70;;
80247;SDS011;69560;52.206;21.018;2023-08-31T13:15:32;4.00;;;3.10;;
80247;SDS011;69560;52.206;21.018;2023-08-31T13:17:59;4.70;;;2.90;;
80247;SDS011;69560;52.206;21.018;2023-08-31T13:20:26;3.10;;;2.80;;
80247;SDS011;69560;52.206;21.018;2023-08-31T13:22:53;4.10;;;3.00;;
80247;SDS011;69560;52.206;21.018;2023-08-31T13:25:20;3.20;;;3.00;;
80247;SDS011;69560;52.206;21.018;2023-08-31T13:27:46;3.30;;;2.80;;
80247;SDS011;69560;52.206;21.018;2023-08-31T13:30:13;3.90;;;3.30;;
80247;SDS011;69560;52.206;21.018;2023-08-31T13:32:39;14.60;;;3.70;;
80247;SDS011;69560;52.206;21.018;2023-08-31T13:35:06;5.90;;;3.20;;
80247;SDS011;69560;52.206;21.018;2023-08-31T13:37:34;4.40;;;3.10;;
80247;SDS011;69560;52.206;21.018;2023-08-31T13:40:00;4.20;;;3.00;;
80247;SDS011;69560;52.206;21.018;2023-08-31T13:42:32;8.50;;;3.20;;
80247;SDS011;69560;52.206;21.018;2023-08-31T13:45:01;4.70;;;2.90;;
80247;SDS011;69560;52.206;21.018;2023-08-31T13:47:29;6.80;;;3.10;;
80247;SDS011;69560;52.206;21.018;2023-08-31T13:49:56;3.70;;;2.90;;
80247;SDS011;69560;52.206;21.018;2023-08-31T13:52:22;3.30;;;3.00;;
80247;SDS011;69560;52.206;21.018;2023-08-31T13:54:49;4.70;;;2.80;;
80247;SDS011;69560;52.206;21.018;2023-08-31T13:57:16;3.40;;;3.10;;
80247;SDS011;69560;52.206;21.018;2023-08-31T13:59:44;3.20;;;3.00;;
80247;SDS011;69560;52.206;21.018;2023-08-31T14:02:10;4.70;;;3.20;;
80247;SDS011;69560;52.206;21.018;2023-08-31T14:04:37;3.40;;;2.80;;
80247;SDS011;69560;52.206;21.018;2023-08-31T14:07:03;2.70;;;2.40;;
80247;SDS011;69560;52.206;21.018;2023-08-31T14:09:30;5.80;;;2.80;;
80247;SDS011;69560;52.206;21.018;2023-08-31T14:11:58;5.60;;;2.70;;
80247;SDS011;69560;52.206;21.018;2023-08-31T14:14:24;3.80;;;3.00;;
80247;SDS011;69560;52.206;21.018;2023-08-31T14:16:51;5.00;;;3.50;;
80247;SDS011;69560;52.206;21.018;2023-08-31T14:19:17;5.80;;;3.10;;
80247;SDS011;69560;52.206;21.018;2023-08-31T14:21:47;4.60;;;3.00;;
80247;SDS011;69560;52.206;21.018;2023-08-31T14:24:14;4.70;;;3.20;;
80247;SDS011;69560;52.206;21.018;2023-08-31T14:26:40;3.70;;;3.30;;
80247;SDS011;69560;52.206;21.018;2023-08-31T14:29:07;4.80;;;3.10;;
80247;SDS011;69560;52.206;21.018;2023-08-31T14:31:33;3.70;;;3.30;;
80247;SDS011;69560;52.206;21.018;2023-08-31T14:34:00;4.70;;;3.50;;
80247;SDS011;69560;52.206;21.018;2023-08-31T14:36:26;3.90;;;3.20;;
80247;SDS011;69560;52.206;21.018;2023-08-31T14:38:53;6.60;;;3.20;;
80247;SDS011;69560;52.206;21.018;2023-08-31T14:41:20;6.90;;;4.10;;
80247;SDS011;69560;52.206;21.018;2023-08-31T14:43:46;8.40;;;3.90;;
80247;SDS011;69560;52.206;21.018;2023-08-31T14:46:13;6.90;;;4.00;;
80247;SDS011;69560;52.206;21.018;2023-08-31T14:48:39;7.20;;;4.20;;
80247;SDS011;69560;52.206;21.018;2023-08-31T14:51:06;6.70;;;4.60;;
80247;SDS011;69560;52.206;21.018;2023-08-31T14:53:35;5.10;;;4.40;;